Flight Track Log - Related Links

Times and Time Zones

All times are in EDT time to prevent confusion due to time zone crossing. See the EJA947 flight status page for this flight to view local times or setup timezone preferences in your user account.


Time Position Orientation Groundspeed Altitude Reporting Facility
EDT Latitude Longitude Course Direction KTS MPH feet Rate Location/Type
Wed 09:04:13 PM 42.6669 -83.3969 85° East 213 245 2,100  Level FAA TRACON SMA TRACON (SMA)
Wed 09:04:33 PM 42.6689 -83.3661 85° East 199 229 3,000 2,850 Climbing FAA TRACON SMA TRACON (SMA)
Wed 09:04:53 PM 42.6719 -83.3367 82° East 270 311 4,000 3,538 Climbing FAA TRACON SMA TRACON (SMA)
Wed 09:05:12 PM 42.6692 -83.3108 98° East 248 285 5,300 3,750 Climbing FAA TRACON SMA TRACON (SMA)
Wed 09:05:33 PM 42.6561 -83.2756 117° Southeast 258 297 6,500 2,400 Climbing FAA TRACON SMA TRACON (SMA)
Wed 09:05:52 PM 42.6431 -83.2472 122° Southeast 286 329 6,900 600 Climbing FAA TRACON SMA TRACON (SMA)
Wed 09:06:13 PM 42.6286 -83.2181 124° Southeast 298 343 6,900 293 Level FAA TRACON SMA TRACON (SMA)
Wed 09:06:33 PM 42.6128 -83.1908 128° Southeast 295 339 7,100  Climbing FAA TRACON SMA TRACON (SMA)
Wed 09:06:53 PM 42.5925 -83.1611 133° Southeast 276 318 6,900 300 Descending FAA TRACON SMA TRACON (SMA)
Wed 09:07:13 PM 42.5728 -83.1442 148° Southeast 279 321 7,300 2,615 Climbing FAA TRACON SMA TRACON (SMA)
Wed 09:07:32 PM 42.5483 -83.1203 144° Southeast 285 328 8,600 3,300 Climbing FAA TRACON SMA TRACON (SMA)
Wed 09:07:53 PM 42.5297 -83.1017 144° Southeast 285 328 9,500 2,927 Climbing FAA TRACON SMA TRACON (SMA)
Wed 09:08:13 PM 42.5072 -83.0806 145° Southeast 289 333 10,600 3,600 Climbing FAA TRACON SMA TRACON (SMA)
Wed 09:08:33 PM 42.4822 -83.0558 144° Southeast 292 336 11,900 3,300 Climbing FAA TRACON SMA TRACON (SMA)
Wed 09:08:53 PM 42.4614 -83.0356 144° Southeast 292 336 12,800 1,692 Climbing FAA TRACON SMA TRACON (SMA)
Wed 09:09:12 PM 42.4394 -83.0142 144° Southeast 316 364 13,000 300 Climbing FAA TRACON SMA TRACON (SMA)
Wed 09:09:33 PM 42.4153 -82.9911 145° Southeast 350 403 13,000  Level FAA TRACON SMA TRACON (SMA)
Wed 09:09:52 PM 42.3828 -82.9617 146° Southeast 372 428 13,000  Level FAA TRACON SMA TRACON (SMA)
Wed 09:10:13 PM 42.3597 -82.9289 134° Southeast 407 468 13,000 146 Level FAA TRACON SMA TRACON (SMA)
Wed 09:10:33 PM 42.3478 -82.8825 109° East 433 498 13,100 450 Climbing FAA TRACON SMA TRACON (SMA)
Wed 09:10:53 PM 42.3417 -82.8189 97° East 446 513 13,300 2,550 Climbing FAA TRACON SMA TRACON (SMA)
Wed 09:11:13 PM 42.3531 -82.7708 72° East 448 516 14,800 3,750 Climbing FAA TRACON SMA TRACON (SMA)
Wed 09:11:33 PM 42.3750 -82.7342 51° Northeast 422 486 15,800 3,150 Climbing FAA TRACON SMA TRACON (SMA)
Wed 09:11:53 PM 42.4128 -82.7047 30° Northeast 409 471 16,900 2,850 Climbing FAA TRACON SMA TRACON (SMA)
Wed 09:12:13 PM 42.4431 -82.6825 28° Northeast 406 467 17,700 2,400 Climbing FAA TRACON SMA TRACON (SMA)
Wed 09:12:33 PM 42.4736 -82.6608 28° Northeast 403 464 18,500 2,850 Climbing FAA TRACON SMA TRACON (SMA)
Wed 09:12:53 PM 42.5103 -82.6333 29° Northeast 396 456 19,600 2,700 Climbing FAA TRACON SMA TRACON (SMA)
Wed 09:13:13 PM 42.5381 -82.6081 34° Northeast 396 456 20,300 2,100 Climbing FAA TRACON SMA TRACON (SMA)
Wed 09:13:33 PM 42.5650 -82.5797 38° Northeast 403 464 21,000 2,400 Climbing FAA TRACON SMA TRACON (SMA)
Wed 09:13:53 PM 42.5997 -82.5442 37° Northeast 410 472 21,900 2,250 Climbing FAA TRACON SMA TRACON (SMA)
Wed 09:14:13 PM 42.6269 -82.5150 38° Northeast 406 467 22,500 1,650 Climbing FAA TRACON SMA TRACON (SMA)
Wed 09:14:33 PM 42.6547 -82.4861 37° Northeast 408 470 23,000 1,950 Climbing FAA TRACON SMA TRACON (SMA)
Wed 09:14:53 PM 42.6908 -82.4503 36° Northeast 414 476 23,800 1,650 Climbing FAA TRACON SMA TRACON (SMA)
Wed 09:15:13 PM 42.7050 -82.4350 38° Northeast 415 478 24,100 450 Climbing FAA TRACON SMA TRACON (SMA)
Wed 09:15:33 PM 42.7050 -82.4350 360° North 415 478 24,100 2,093 Level FAA TRACON SMA TRACON (SMA)
Wed 09:16:39 PM 42.7864 -82.2156 63° Northeast 400 460 27,100 1,905 Climbing Cleveland Center
Wed 09:17:39 PM 42.7406 -82.0392 109° East 412 474 28,100 1,000 Climbing Cleveland Center
Wed 09:18:39 PM 42.7033 -81.8517 105° East 455 524 29,100 1,000 Climbing Cleveland Center
Wed 09:19:39 PM 42.6653 -81.6900 108° East 490 564 30,100 1,000 Climbing Cleveland Center
Wed 09:20:39 PM 42.6253 -81.5031 106° East 506 582 31,100 1,000 Climbing Cleveland Center
Wed 09:21:39 PM 42.5767 -81.2994 108° East 511 588 32,100 950 Climbing Cleveland Center
Wed 09:22:39 PM 42.5319 -81.1100 108° East 517 595 33,000 1,150 Climbing Cleveland Center
Wed 09:23:39 PM 42.4869 -80.9153 107° East 534 615 34,400 1,850 Climbing Cleveland Center
Wed 09:24:39 PM 42.4392 -80.7211 108° East 542 624 36,700 1,300 Climbing Cleveland Center
Wed 09:25:39 PM 42.3914 -80.5186 108° East 550 633 37,000 150 Climbing Cleveland Center
Wed 09:26:39 PM 42.3411 -80.3164 109° East 565 650 37,000  Level Cleveland Center
Wed 09:27:39 PM 42.2947 -80.1172 107° East 565 650 37,000  Level Cleveland Center
Wed 09:28:39 PM 42.2542 -79.9183 105° East 554 638 37,000  Level Cleveland Center
Wed 09:29:39 PM 42.2111 -79.7197 106° East 549 632 37,000 -350 Level Cleveland Center
Wed 09:30:39 PM 42.1764 -79.5436 105° East 549 632 36,300 -1,000 Descending Cleveland Center
Wed 09:31:39 PM 42.1369 -79.3539 106° East 538 619 35,000 -650 Descending Cleveland Center
Wed 09:32:39 PM 42.0950 -79.1617 106° East 528 608 35,000  Level Cleveland Center
Wed 09:33:39 PM 42.0633 -78.9667 102° East 528 608 35,000  Level Cleveland Center
Wed 09:34:39 PM 42.0228 -78.7664 105° East 539 620 35,000  Level Cleveland Center
Wed 09:35:39 PM 41.9797 -78.5664 106° East 544 626 35,000  Level Cleveland Center
Wed 09:36:39 PM 41.9408 -78.3694 105° East 549 632 35,000  Level Cleveland Center
Wed 09:38:23 PM 41.8697 -78.0408 106° East 551 634 35,000  Level New York Center
Wed 09:39:23 PM 41.8292 -77.8497 106° East 546 628 35,000  Level New York Center
Wed 09:40:24 PM 41.7886 -77.6533 105° East 546 628 35,000  Level New York Center
Wed 09:41:24 PM 41.7475 -77.4603 106° East 546 628 35,000  Level New York Center
Wed 09:42:22 PM 41.7039 -77.2697 107° East 546 628 35,000 -153 Level New York Center
Wed 09:43:22 PM 41.6619 -77.0822 107° East 541 623 34,700 -1,180 Descending New York Center
Wed 09:44:24 PM 41.6072 -76.8939 111° Southeast 536 617 32,600 -2,400 Descending New York Center
Wed 09:45:22 PM 41.5528 -76.6922 110° East 536 617 29,900 -2,600 Descending New York Center
Wed 09:46:24 PM 41.5017 -76.5047 110° East 541 623 27,400 -2,439 Descending New York Center
Wed 09:47:25 PM 41.4525 -76.3122 109° East 548 631 24,900 -2,390 Descending New York Center
Wed 09:48:22 PM 41.4019 -76.1450 112° Southeast 543 625 22,700 -2,390 Descending New York Center
Wed 09:49:23 PM 41.3533 -75.9725 111° Southeast 521 600 20,200 -2,331 Descending New York Center
Wed 09:50:23 PM 41.3061 -75.8142 112° Southeast 494 568 18,000 -2,430 Descending New York Center
Wed 09:51:24 PM 41.2569 -75.6447 111° Southeast 463 533 15,300 -2,450 Descending New York Center
Wed 09:52:23 PM 41.2142 -75.5150 114° Southeast 429 494 13,100 -1,800 Descending New York Center
Wed 09:53:24 PM 41.1675 -75.3767 114° Southeast 394 453 11,700 -1,587 Descending New York Center
Wed 09:54:24 PM 41.1303 -75.2639 114° Southeast 359 413 9,900 -1,641 Descending New York Center
Wed 09:55:21 PM 41.0947 -75.1597 114° Southeast 317 365 8,500 -1,462 Descending New York Center
Wed 09:56:23 PM 41.0644 -75.0722 115° Southeast 292 336 7,000 -1,230 Descending New York Center
Wed 09:57:23 PM 41.0203 -74.9733 121° Southeast 280 322 6,000 -595 Descending New York Center
Wed 09:58:24 PM 40.9836 -74.8858 119° Southeast 280 322 5,800 -496 Descending New York Center
Wed 09:59:24 PM 40.9450 -74.7983 120° Southeast 280 322 5,000 -769 Descending New York Center
Wed 10:00:21 PM 40.9061 -74.7192 123° Southeast 275 316 4,300 -508 Descending New York Center
Wed 10:01:22 PM 40.8517 -74.6583 140° Southeast 259 298 4,000 -600 Descending New York Center
Wed 10:02:31 PM 40.8000 -74.6000 139° Southeast 228 262 3,000 -488 Descending New York TRACON
Wed 10:03:25 PM 40.7500 -74.5500 143° Southeast 216 249 3,000  Level New York TRACON
Wed 10:04:25 PM 40.7333 -74.4833 108° East 204 235 3,000  Level New York TRACON
Wed 10:05:25 PM 40.7167 -74.4167 108° East 202 232 3,000 -500 Level New York TRACON
Wed 10:06:25 PM 40.7167 -74.3500 90° East 194 223 2,000 -500 Descending New York TRACON
Wed 10:07:25 PM 40.7167 -74.2833 90° East 160 184 2,000 -100 Level New York TRACON
Wed 10:08:25 PM 40.7333 -74.2333 66° East 168 193 1,800 -263 Descending New York TRACON
Wed 10:09:19 PM 40.7667 -74.1833 49° Northeast 155 178 1,500 -150 Descending New York TRACON
Wed 10:10:25 PM 40.8000 -74.1500 37° Northeast 147 169 1,500 -333 Level New York TRACON
Wed 10:11:25 PM 40.8167 -74.1000 66° East 140 161 800 -700 Descending New York TRACON
Wed 10:13:00 PM 40.8500 -74.0500 70° East  Level FlightAware Approximate
Wed 10:20:00 PM 40.8501 -74.0608 70° East  Level Estimated

Login

Don't have an account? Register now (free) for customized features, flight alerts, and more!